createdAt,value
2023-04-28T00:00:18.341Z,112.00
2023-04-28T00:01:13.523Z,111.10
2023-04-28T00:02:08.800Z,110.66
2023-04-28T00:03:04.011Z,109.57
2023-04-28T00:03:59.133Z,109.64
2023-04-28T00:04:54.365Z,108.29
2023-04-28T00:05:49.220Z,107.45
2023-04-28T00:06:44.398Z,106.22
2023-04-28T00:07:39.523Z,104.89
2023-04-28T00:08:34.706Z,104.82
2023-04-28T00:09:30.014Z,103.97
2023-04-28T00:10:25.053Z,102.50
2023-04-28T00:11:20.188Z,101.57
2023-04-28T00:12:15.448Z,101.38
2023-04-28T00:13:10.502Z,102.06
2023-04-28T00:14:05.646Z,103.01
2023-04-28T00:15:01.005Z,103.84
2023-04-28T00:15:56.028Z,104.30
2023-04-28T00:16:51.261Z,105.35
2023-04-28T00:17:46.486Z,105.02
2023-04-28T00:18:41.496Z,105.62
2023-04-28T00:19:36.789Z,106.70
2023-04-28T00:20:31.839Z,108.86
2023-04-28T00:21:26.977Z,109.21
2023-04-28T00:22:22.278Z,108.15
2023-04-28T00:23:17.318Z,108.50
2023-04-28T00:24:12.493Z,107.73
2023-04-28T00:25:07.678Z,107.52
2023-04-28T00:26:02.855Z,107.52
2023-04-28T00:26:57.993Z,108.78
2023-04-28T00:27:53.199Z,109.93
2023-04-28T00:28:48.312Z,109.71
2023-04-28T00:29:43.534Z,108.50
2023-04-28T00:30:38.557Z,109.14
2023-04-28T00:31:33.718Z,108.22
2023-04-28T00:32:29.005Z,108.43
2023-04-28T00:33:24.043Z,108.43
2023-04-28T00:34:19.182Z,108.78
2023-04-28T00:35:14.396Z,107.66
2023-04-28T00:36:09.532Z,107.25
2023-04-28T00:37:04.766Z,105.48
2023-04-28T00:37:59.965Z,104.43
2023-04-28T00:38:55.120Z,103.07
2023-04-28T00:39:50.260Z,102.63
2023-04-28T00:40:45.626Z,101.94
2023-04-28T00:41:40.473Z,101.38
2023-04-28T00:42:35.787Z,100.77
2023-04-28T00:43:30.797Z,99.57
2023-04-28T00:44:25.906Z,98.80
2023-04-28T00:45:21.200Z,97.76
2023-04-28T00:46:16.225Z,97.02
2023-04-28T00:47:11.226Z,96.74
2023-04-28T00:48:06.392Z,96.74
2023-04-28T00:49:01.479Z,97.59
2023-04-28T00:49:56.749Z,98.63
2023-04-28T00:50:51.705Z,98.28
2023-04-28T00:51:46.864Z,98.39
2023-04-28T00:52:42.053Z,98.57
2023-04-28T00:53:37.185Z,98.86
2023-04-28T00:54:32.250Z,98.92
2023-04-28T00:55:27.582Z,100.17
2023-04-28T00:56:22.427Z,101.07
2023-04-28T00:57:17.583Z,102.19
2023-04-28T00:58:12.728Z,103.65
2023-04-28T00:59:08.049Z,104.04
2023-04-28T01:00:03.053Z,103.39
2023-04-28T01:00:58.285Z,103.26
2023-04-28T01:01:53.444Z,102.50
2023-04-28T01:02:48.832Z,102.63
2023-04-28T01:03:43.883Z,102.69
2023-04-28T01:04:39.054Z,103.97
2023-04-28T01:05:34.153Z,102.76
2023-04-28T01:06:29.352Z,103.14
2023-04-28T01:07:24.461Z,104.43
2023-04-28T01:08:19.637Z,104.56
2023-04-28T01:09:14.777Z,104.17
2023-04-28T01:10:10.134Z,102.76
2023-04-28T01:11:05.030Z,102.06
2023-04-28T01:12:00.221Z,100.04
2023-04-28T01:12:55.417Z,99.69
2023-04-28T01:13:50.609Z,99.93
2023-04-28T01:14:45.567Z,98.80
2023-04-28T01:15:40.906Z,98.80
2023-04-28T01:16:35.732Z,98.39
2023-04-28T01:17:30.836Z,98.39
2023-04-28T01:18:25.914Z,98.68
2023-04-28T01:19:21.183Z,99.75
2023-04-28T01:20:16.505Z,101.63
2023-04-28T01:21:11.574Z,102.50
2023-04-28T01:22:06.708Z,103.58
2023-04-28T01:23:02.022Z,103.65
2023-04-28T01:23:57.025Z,103.58
2023-04-28T01:24:52.192Z,102.88
2023-04-28T01:25:47.582Z,101.14
2023-04-28T01:26:42.549Z,101.01
2023-04-28T01:27:37.662Z,100.11
2023-04-28T01:28:32.817Z,99.57
2023-04-28T01:29:27.933Z,98.98
2023-04-28T01:30:23.062Z,98.86
2023-04-28T01:31:18.291Z,98.98
2023-04-28T01:32:13.247Z,98.86
2023-04-28T01:33:08.485Z,99.51
2023-04-28T01:34:03.538Z,98.98
2023-04-28T01:34:58.607Z,98.74
2023-04-28T01:35:53.897Z,98.16
2023-04-28T01:36:48.847Z,98.39
2023-04-28T01:37:43.930Z,97.82
2023-04-28T01:38:39.040Z,97.87
2023-04-28T01:39:34.273Z,97.53
2023-04-28T01:40:29.375Z,97.76
2023-04-28T01:41:24.792Z,97.82
2023-04-28T01:43:44.755Z,90.07
2023-04-28T01:44:41.516Z,89.21
2023-04-28T01:45:34.866Z,89.88
2023-04-28T01:46:30.182Z,90.46
2023-04-28T01:47:25.166Z,91.36
2023-04-28T01:48:20.239Z,92.47
2023-04-28T01:49:15.395Z,93.30
2023-04-28T01:50:10.491Z,94.35
2023-04-28T01:51:05.641Z,94.25
2023-04-28T01:52:00.644Z,94.14
2023-04-28T01:52:55.752Z,94.25
2023-04-28T01:53:50.976Z,93.61
2023-04-28T01:54:46.096Z,92.47
2023-04-28T01:55:41.205Z,91.96
2023-04-28T01:56:36.539Z,91.16
2023-04-28T01:57:31.352Z,90.46
2023-04-28T01:58:26.442Z,90.46
2023-04-28T01:59:21.566Z,91.56
2023-04-28T02:00:16.686Z,91.76
2023-04-28T02:01:12.022Z,92.57
2023-04-28T02:02:06.904Z,92.99
2023-04-28T02:03:02.022Z,94.25
2023-04-28T02:03:57.409Z,95.43
2023-04-28T02:04:52.522Z,95.36
2023-04-28T02:05:47.432Z,95.41
2023-04-28T02:06:42.666Z,95.52
2023-04-28T02:07:37.669Z,96.68
2023-04-28T02:08:32.751Z,97.70
2023-04-28T02:09:27.928Z,99.69
2023-04-28T02:10:23.050Z,99.69
2023-04-28T02:11:18.399Z,100.22
2023-04-28T02:12:13.379Z,100.11
2023-04-28T02:13:08.423Z,99.99
2023-04-28T02:14:03.744Z,100.59
2023-04-28T02:14:58.801Z,100.47
2023-04-28T02:15:53.958Z,100.35
2023-04-28T02:16:49.298Z,100.83
2023-04-28T02:17:44.348Z,99.63
2023-04-28T02:18:39.475Z,100.35
2023-04-28T02:19:34.642Z,99.81
2023-04-28T02:20:31.906Z,99.04
2023-04-28T02:21:25.123Z,99.21
2023-04-28T02:22:20.006Z,98.86
2023-04-28T02:23:15.090Z,98.57
2023-04-28T02:24:10.322Z,98.22
2023-04-28T02:25:05.426Z,96.91
2023-04-28T02:26:00.538Z,96.68
2023-04-28T02:26:55.831Z,95.19
2023-04-28T02:27:50.968Z,95.65
2023-04-28T02:28:46.133Z,94.67
2023-04-28T02:29:41.132Z,92.78
2023-04-28T02:30:36.203Z,91.56
2023-04-28T02:31:31.735Z,90.96
2023-04-28T02:32:26.592Z,90.76
2023-04-28T02:33:21.843Z,91.06
2023-04-28T02:34:17.252Z,92.57
2023-04-28T02:35:12.136Z,93.61
2023-04-28T02:36:07.393Z,93.40
2023-04-28T02:37:02.473Z,93.61
2023-04-28T02:37:57.570Z,93.82
2023-04-28T02:38:52.676Z,93.82
2023-04-28T02:39:47.780Z,93.09
2023-04-28T02:40:43.029Z,92.99
2023-04-28T02:41:38.140Z,91.96
2023-04-28T02:42:33.396Z,91.36
2023-04-28T02:43:28.484Z,91.36
2023-04-28T02:44:23.759Z,90.96
2023-04-28T02:45:18.752Z,91.36
2023-04-28T02:46:13.901Z,91.06
2023-04-28T02:47:08.892Z,91.76
2023-04-28T02:48:04.119Z,92.26
2023-04-28T02:48:59.179Z,92.16
2023-04-28T02:49:54.310Z,92.37
2023-04-28T02:50:49.389Z,92.47
2023-04-28T02:51:44.685Z,92.68
2023-04-28T02:52:39.531Z,93.61
2023-04-28T02:53:34.635Z,92.47
2023-04-28T02:54:29.897Z,72.91
2023-04-28T02:55:24.930Z,70.10
2023-04-28T02:56:20.331Z,73.75
2023-04-28T02:57:15.172Z,77.52
2023-04-28T02:58:10.294Z,80.59
2023-04-28T02:59:05.424Z,83.00
2023-04-28T03:00:00.544Z,85.64
2023-04-28T03:00:55.687Z,87.16
2023-04-28T03:01:50.908Z,88.64
2023-04-28T03:02:46.088Z,89.69
2023-04-28T03:03:41.274Z,90.27
2023-04-28T03:04:36.523Z,91.76
2023-04-28T03:05:31.359Z,92.57
2023-04-28T03:06:26.779Z,92.99
2023-04-28T03:07:21.619Z,91.76
2023-04-28T03:08:16.943Z,91.16
2023-04-28T03:09:11.875Z,91.06
2023-04-28T03:10:07.037Z,90.17
2023-04-28T03:11:02.345Z,89.78
2023-04-28T03:11:57.292Z,90.17
2023-04-28T03:12:52.437Z,90.17
2023-04-28T03:13:47.687Z,90.17
2023-04-28T03:14:42.891Z,90.46
2023-04-28T03:15:38.191Z,89.98
2023-04-28T03:16:33.191Z,90.46
2023-04-28T03:17:28.338Z,90.46
2023-04-28T03:18:23.425Z,90.27
2023-04-28T03:19:18.582Z,90.56
2023-04-28T03:20:13.714Z,91.76
2023-04-28T03:21:08.843Z,92.57
2023-04-28T03:22:03.938Z,94.35
2023-04-28T03:22:59.203Z,95.43
2023-04-28T03:23:54.308Z,93.91
2023-04-28T03:24:49.537Z,94.76
2023-04-28T03:25:44.525Z,96.18
2023-04-28T03:26:39.841Z,97.47
2023-04-28T03:27:34.705Z,98.86
2023-04-28T03:28:29.867Z,98.68
2023-04-28T03:29:24.991Z,95.08
2023-04-28T03:30:20.331Z,95.21
2023-04-28T03:31:15.157Z,95.43
2023-04-28T03:32:10.568Z,95.21
2023-04-28T03:33:05.385Z,95.11
2023-04-28T03:34:00.534Z,95.00
2023-04-28T03:34:55.634Z,95.00
2023-04-28T03:35:50.721Z,95.11
2023-04-28T03:36:45.690Z,95.43
2023-04-28T03:37:40.864Z,95.21
2023-04-28T03:38:35.968Z,95.65
2023-04-28T03:39:31.109Z,95.11
2023-04-28T03:40:26.377Z,94.57
2023-04-28T03:41:21.494Z,94.67
2023-04-28T03:42:16.594Z,94.25
2023-04-28T03:43:11.808Z,94.57
2023-04-28T03:44:06.912Z,94.25
2023-04-28T03:45:02.198Z,94.03
2023-04-28T03:45:57.297Z,94.89
2023-04-28T03:46:52.284Z,95.21
2023-04-28T03:47:47.459Z,95.65
2023-04-28T03:48:42.535Z,94.67
2023-04-28T03:49:37.629Z,93.72
2023-04-28T03:50:33.032Z,92.88
2023-04-28T03:51:27.904Z,92.57
2023-04-28T03:52:23.030Z,93.09
2023-04-28T03:53:18.148Z,92.78
2023-04-28T03:54:13.633Z,92.26
2023-04-28T03:55:08.921Z,92.37
2023-04-28T03:56:03.832Z,93.51
2023-04-28T03:56:58.947Z,94.35
2023-04-28T03:57:54.107Z,95.54
2023-04-28T03:58:49.233Z,94.01
2023-04-28T03:59:44.600Z,94.39
2023-04-28T04:00:39.512Z,94.44
2023-04-28T04:01:34.689Z,95.65
2023-04-28T04:02:29.948Z,94.25
2023-04-28T04:03:25.129Z,93.30
2023-04-28T04:04:20.742Z,93.09
2023-04-28T04:05:15.487Z,93.61
2023-04-28T04:06:10.411Z,94.03
2023-04-28T04:07:05.596Z,93.93
2023-04-28T04:08:00.767Z,93.72
2023-04-28T04:08:55.944Z,92.68
2023-04-28T04:09:51.271Z,91.36
2023-04-28T04:10:46.469Z,90.66
2023-04-28T04:11:41.569Z,90.37
2023-04-28T04:12:36.708Z,89.88
2023-04-28T04:13:31.886Z,88.36
2023-04-28T04:14:27.082Z,85.20
2023-04-28T04:15:22.541Z,83.08
2023-04-28T04:16:17.598Z,82.50
2023-04-28T04:17:12.584Z,81.62
2023-04-28T04:18:07.830Z,81.06
2023-04-28T04:19:02.831Z,80.59
2023-04-28T04:19:58.225Z,80.98
2023-04-28T04:20:53.133Z,81.38
2023-04-28T04:21:48.336Z,81.86
2023-04-28T04:22:43.482Z,82.58
2023-04-28T04:23:38.725Z,82.91
2023-04-28T04:24:34.134Z,82.34
2023-04-28T04:25:29.277Z,82.18
2023-04-28T04:26:24.458Z,82.18
2023-04-28T04:27:19.758Z,82.10
2023-04-28T04:28:14.949Z,82.10
2023-04-28T04:29:10.276Z,82.18
2023-04-28T04:30:05.759Z,81.78
2023-04-28T04:31:00.809Z,82.02
2023-04-28T04:31:56.056Z,81.62
2023-04-28T04:32:51.404Z,82.02
2023-04-28T04:33:46.610Z,81.86
2023-04-28T04:34:41.870Z,81.62
2023-04-28T04:35:37.219Z,81.94
2023-04-28T04:36:32.426Z,81.70
2023-04-28T04:37:27.609Z,81.70
2023-04-28T04:38:23.034Z,82.10
2023-04-28T04:39:18.277Z,82.18
2023-04-28T04:40:13.633Z,82.75
2023-04-28T04:41:08.835Z,83.16
2023-04-28T04:42:13.563Z,83.75
2023-04-28T04:43:00.416Z,83.75
2023-04-28T04:43:54.893Z,83.75
2023-04-28T04:44:49.942Z,83.83
2023-04-28T04:45:45.428Z,83.58
2023-04-28T04:46:40.512Z,80.90
2023-04-28T04:47:35.845Z,65.89
2023-04-28T04:48:31.036Z,59.76
2023-04-28T04:49:26.384Z,51.72
2023-04-28T04:50:21.546Z,52.20
2023-04-28T04:51:16.790Z,58.38
2023-04-28T04:52:11.912Z,65.22
2023-04-28T04:53:09.947Z,71.60
2023-04-28T04:54:03.450Z,76.95
2023-04-28T04:54:57.680Z,81.54
2023-04-28T04:55:53.087Z,83.66
2023-04-28T04:56:48.330Z,85.46
2023-04-28T04:57:43.528Z,87.61
2023-04-28T04:58:38.815Z,88.83
2023-04-28T04:59:34.844Z,89.21
2023-04-28T05:00:30.028Z,89.78
2023-04-28T05:01:25.389Z,89.78
2023-04-28T05:02:20.821Z,89.88
2023-04-28T05:03:16.074Z,90.96
2023-04-28T05:04:11.618Z,92.16
2023-04-28T05:05:19.720Z,91.86
2023-04-28T05:06:02.585Z,90.76
2023-04-28T05:06:56.817Z,91.96
2023-04-28T05:07:52.137Z,91.46
2023-04-28T05:08:47.359Z,91.16
2023-04-28T05:09:42.548Z,90.86
2023-04-28T05:10:37.906Z,89.59
2023-04-28T05:11:33.084Z,87.25
2023-04-28T05:12:28.533Z,85.72
2023-04-28T05:13:23.762Z,84.25
2023-04-28T05:14:19.227Z,83.49
2023-04-28T05:15:14.446Z,82.10
2023-04-28T05:16:09.875Z,77.52
2023-04-28T05:17:05.153Z,68.09
2023-04-28T05:18:00.508Z,69.34
2023-04-28T05:18:55.913Z,70.51
2023-04-28T05:19:51.084Z,72.22
2023-04-28T05:20:46.492Z,74.01
2023-04-28T05:21:41.848Z,75.97
2023-04-28T05:22:37.177Z,77.31
2023-04-28T05:23:32.614Z,79.06
2023-04-28T05:24:28.177Z,80.51
2023-04-28T05:25:23.228Z,81.62
2023-04-28T05:26:18.622Z,82.34
2023-04-28T05:27:14.034Z,82.91
2023-04-28T05:28:09.309Z,83.33
2023-04-28T05:29:04.738Z,84.08
2023-04-28T05:30:00.164Z,84.00
2023-04-28T05:30:55.973Z,85.03
2023-04-28T05:31:51.433Z,85.90
2023-04-28T05:32:46.609Z,86.08
2023-04-28T05:33:41.516Z,86.71
2023-04-28T05:34:36.671Z,87.71
2023-04-28T05:35:31.623Z,88.26
2023-04-28T05:36:26.710Z,88.45
2023-04-28T05:37:21.846Z,89.02
2023-04-28T05:38:16.808Z,90.56
2023-04-28T05:39:11.805Z,91.26
2023-04-28T05:40:07.088Z,92.26
2023-04-28T05:41:01.920Z,93.72
2023-04-28T05:41:57.940Z,95.65
2023-04-28T05:42:52.995Z,94.60
2023-04-28T05:43:48.155Z,96.51
2023-04-28T05:44:43.344Z,97.36
2023-04-28T05:45:38.254Z,97.42
2023-04-28T05:46:33.190Z,98.33
2023-04-28T05:47:28.314Z,98.51
2023-04-28T05:48:23.221Z,99.81
2023-04-28T05:49:18.312Z,101.14
2023-04-28T05:50:13.438Z,101.38
2023-04-28T05:51:08.548Z,101.57
2023-04-28T05:52:03.540Z,100.17
2023-04-28T05:52:58.571Z,101.32
2023-04-28T05:53:53.600Z,103.26
2023-04-28T05:54:48.804Z,103.14
2023-04-28T05:55:43.718Z,95.96
2023-04-28T05:56:42.327Z,95.96
2023-04-28T05:57:45.666Z,98.86
2023-04-28T05:58:33.550Z,102.00
2023-04-28T05:59:28.652Z,103.39
2023-04-28T06:00:24.170Z,105.48
2023-04-28T06:01:19.481Z,107.45
2023-04-28T06:02:15.940Z,109.00
2023-04-28T06:03:11.618Z,110.66
2023-04-28T06:04:07.765Z,112.98
2023-04-28T06:05:02.733Z,115.89
2023-04-28T06:05:58.078Z,117.19
2023-04-28T06:06:53.894Z,116.37
2023-04-28T06:07:50.238Z,117.02
2023-04-28T06:08:45.100Z,114.06
2023-04-28T06:09:40.523Z,114.46
2023-04-28T06:10:35.904Z,115.81
2023-04-28T06:11:31.711Z,116.53
2023-04-28T06:12:26.922Z,118.18
2023-04-28T06:13:22.279Z,118.86
2023-04-28T06:14:18.760Z,118.52
2023-04-28T06:15:13.901Z,118.77
2023-04-28T06:16:09.744Z,117.85
2023-04-28T06:17:05.161Z,116.13
2023-04-28T06:18:00.485Z,115.64
2023-04-28T06:18:56.348Z,115.09
2023-04-28T06:19:51.651Z,114.06
2023-04-28T06:20:47.373Z,115.17
2023-04-28T06:21:42.632Z,115.56
2023-04-28T06:22:38.144Z,116.94
2023-04-28T06:23:33.881Z,117.77
2023-04-28T06:24:29.445Z,117.68
2023-04-28T06:25:24.774Z,118.35
2023-04-28T06:26:21.331Z,117.68
2023-04-28T06:27:16.679Z,119.20
2023-04-28T06:28:12.487Z,121.19
2023-04-28T06:29:07.993Z,122.07
2023-04-28T06:30:03.269Z,123.15
2023-04-28T06:30:59.008Z,125.09
2023-04-28T06:31:54.477Z,125.19
2023-04-28T06:32:50.225Z,125.85
2023-04-28T06:33:45.715Z,126.81
2023-04-28T06:34:41.055Z,126.04
2023-04-28T06:35:36.838Z,125.94
2023-04-28T06:36:32.163Z,126.81
2023-04-28T06:37:27.698Z,126.71
2023-04-28T06:38:23.892Z,126.71
2023-04-28T06:39:19.528Z,126.42
2023-04-28T06:40:15.088Z,126.52
2023-04-28T06:41:10.427Z,125.66
2023-04-28T06:42:05.654Z,126.81
2023-04-28T06:43:01.553Z,128.56
2023-04-28T06:43:56.854Z,128.27
2023-04-28T06:44:52.783Z,124.63
2023-04-28T06:45:48.145Z,122.52
2023-04-28T06:46:43.481Z,122.88
2023-04-28T06:47:39.251Z,125.00
2023-04-28T06:48:34.757Z,126.13
2023-04-28T06:49:30.215Z,128.66
2023-04-28T06:50:26.563Z,129.36
2023-04-28T06:51:21.941Z,128.76
2023-04-28T06:52:17.748Z,128.86
2023-04-28T06:53:13.128Z,129.76
2023-04-28T06:54:08.720Z,129.66
2023-04-28T06:55:03.674Z,127.48
2023-04-28T06:55:58.929Z,115.25
2023-04-28T06:56:53.885Z,110.66
2023-04-28T06:57:48.916Z,112.75
2023-04-28T06:58:43.880Z,114.61
2023-04-28T06:59:39.021Z,118.94
2023-04-28T07:00:34.036Z,120.92
2023-04-28T07:01:29.136Z,123.98
2023-04-28T07:02:24.165Z,126.13
2023-04-28T07:03:19.244Z,125.75
2023-04-28T07:04:14.567Z,126.81
2023-04-28T07:05:09.468Z,126.71
2023-04-28T07:06:04.446Z,127.97
2023-04-28T07:06:59.645Z,128.66
2023-04-28T07:07:54.900Z,129.36
2023-04-28T07:08:50.385Z,129.26
2023-04-28T07:09:46.424Z,129.66
2023-04-28T07:10:41.671Z,129.66
2023-04-28T07:11:37.137Z,131.09
2023-04-28T07:12:32.550Z,131.92
2023-04-28T07:13:27.956Z,132.13
2023-04-28T07:14:22.951Z,131.09
2023-04-28T07:15:17.912Z,132.55
2023-04-28T07:16:13.069Z,132.44
2023-04-28T07:17:08.074Z,132.55
2023-04-28T07:18:03.216Z,131.92
2023-04-28T07:18:58.199Z,128.17
2023-04-28T07:19:53.316Z,128.27
2023-04-28T07:20:48.315Z,128.76
2023-04-28T07:21:43.447Z,129.76
2023-04-28T07:22:40.429Z,130.99
2023-04-28T07:23:35.687Z,131.71
2023-04-28T07:24:30.545Z,131.40
2023-04-28T07:25:25.682Z,130.17
2023-04-28T07:26:20.732Z,127.29
2023-04-28T07:27:15.830Z,127.87
2023-04-28T07:28:10.877Z,127.58
2023-04-28T07:29:05.864Z,126.52
2023-04-28T07:30:03.141Z,125.75
2023-04-28T07:30:57.266Z,125.09
2023-04-28T07:31:51.811Z,125.47
2023-04-28T07:32:47.590Z,125.47
2023-04-28T07:33:42.827Z,127.00
2023-04-28T07:34:38.331Z,127.19
2023-04-28T07:35:34.706Z,129.66
2023-04-28T07:36:30.147Z,130.07
2023-04-28T07:37:25.792Z,130.47
2023-04-28T07:38:21.331Z,130.07
2023-04-28T07:39:16.742Z,130.07
2023-04-28T07:40:12.766Z,128.86
2023-04-28T07:41:10.096Z,129.36
2023-04-28T07:42:04.147Z,127.48
2023-04-28T07:42:59.763Z,128.86
2023-04-28T07:43:55.081Z,129.86
2023-04-28T07:46:14.755Z,115.81
2023-04-28T07:47:10.006Z,116.37
2023-04-28T07:48:06.730Z,117.19
2023-04-28T07:49:00.898Z,119.71
2023-04-28T07:49:56.284Z,123.89
2023-04-28T07:50:51.873Z,125.47
2023-04-28T07:51:47.148Z,127.19
2023-04-28T07:52:42.828Z,128.07
2023-04-28T07:53:38.229Z,128.96
2023-04-28T07:54:35.116Z,129.16
2023-04-28T07:55:29.088Z,127.87
2023-04-28T07:56:24.675Z,127.09
2023-04-28T07:57:19.948Z,125.85
2023-04-28T07:58:16.383Z,124.72
2023-04-28T07:59:10.913Z,125.66
2023-04-28T08:00:06.299Z,126.81
2023-04-28T08:01:01.770Z,129.36
2023-04-28T08:01:57.291Z,129.26
2023-04-28T08:02:52.901Z,130.68
2023-04-28T08:03:48.463Z,130.99
2023-04-28T08:04:43.992Z,130.99
2023-04-28T08:05:39.095Z,130.57
2023-04-28T08:06:34.498Z,131.29
2023-04-28T08:07:29.927Z,132.34
2023-04-28T08:08:25.377Z,133.39
2023-04-28T08:09:20.904Z,133.07
2023-04-28T08:10:16.102Z,132.23
2023-04-28T08:11:11.638Z,132.65
2023-04-28T08:12:07.122Z,133.29
2023-04-28T08:13:02.791Z,134.14
2023-04-28T08:13:58.025Z,135.67
2023-04-28T08:14:53.479Z,133.93
2023-04-28T08:15:48.844Z,134.25
2023-04-28T08:16:44.440Z,136.56
2023-04-28T08:17:39.888Z,139.06
2023-04-28T08:18:35.204Z,139.64
2023-04-28T08:19:30.537Z,141.66
2023-04-28T08:20:25.959Z,144.48
2023-04-28T08:21:21.297Z,145.36
2023-04-28T08:22:16.733Z,145.36
2023-04-28T08:23:12.372Z,146.90
2023-04-28T08:24:07.839Z,147.03
2023-04-28T08:25:03.147Z,144.23
2023-04-28T08:25:58.650Z,145.36
2023-04-28T08:26:54.111Z,146.64
2023-04-28T08:27:49.745Z,149.00
2023-04-28T08:28:45.145Z,149.13
2023-04-28T08:29:40.635Z,148.46
2023-04-28T08:30:36.161Z,147.81
2023-04-28T08:31:31.591Z,148.46
2023-04-28T08:32:27.009Z,149.13
2023-04-28T08:33:22.457Z,150.74
2023-04-28T08:34:18.109Z,149.80
2023-04-28T08:35:13.275Z,146.64
2023-04-28T08:36:08.695Z,146.90
2023-04-28T08:37:04.248Z,148.07
2023-04-28T08:37:59.800Z,146.64
2023-04-28T08:38:55.198Z,145.74
2023-04-28T08:39:50.574Z,144.86
2023-04-28T08:40:46.422Z,145.11
2023-04-28T08:41:41.647Z,143.86
2023-04-28T08:42:37.468Z,146.00
2023-04-28T08:43:32.691Z,146.12
2023-04-28T08:44:28.341Z,146.25
2023-04-28T08:45:23.555Z,146.77
2023-04-28T08:46:19.142Z,148.46
2023-04-28T08:47:14.525Z,148.60
2023-04-28T08:48:10.093Z,150.34
2023-04-28T08:49:05.372Z,147.81
2023-04-28T08:50:00.921Z,145.74
2023-04-28T08:50:56.429Z,144.36
2023-04-28T08:51:52.036Z,145.36
2023-04-28T08:52:47.238Z,144.61
2023-04-28T08:54:08.831Z,145.49
2023-04-28T08:54:39.052Z,146.12
2023-04-28T08:55:33.494Z,144.98
2023-04-28T08:56:28.833Z,144.86
2023-04-28T08:57:24.292Z,143.36
2023-04-28T08:58:19.644Z,143.98
2023-04-28T08:59:15.351Z,144.11
2023-04-28T09:00:10.765Z,143.73
2023-04-28T09:01:06.288Z,140.47
2023-04-28T09:02:01.833Z,140.82
2023-04-28T09:02:57.362Z,143.86
2023-04-28T09:03:52.770Z,143.73
2023-04-28T09:04:48.536Z,142.38
2023-04-28T09:05:43.635Z,141.54
2023-04-28T09:06:39.089Z,140.94
2023-04-28T09:07:34.735Z,137.80
2023-04-28T09:08:29.912Z,135.78
2023-04-28T09:09:25.357Z,135.23
2023-04-28T09:10:20.701Z,136.78
2023-04-28T09:11:16.090Z,136.45
2023-04-28T09:12:13.140Z,136.22
2023-04-28T09:13:08.392Z,136.56
2023-04-28T09:14:03.933Z,137.57
2023-04-28T09:14:59.271Z,138.60
2023-04-28T09:15:54.698Z,138.95
2023-04-28T09:16:49.704Z,137.46
2023-04-28T09:17:44.772Z,137.91
2023-04-28T09:18:39.719Z,137.91
2023-04-28T09:19:34.883Z,136.11
2023-04-28T09:20:29.877Z,135.12
2023-04-28T09:21:24.966Z,134.25
2023-04-28T09:23:15.089Z,132.76
2023-04-28T09:24:10.116Z,132.55
2023-04-28T09:25:05.157Z,132.76
2023-04-28T09:26:01.520Z,129.96
2023-04-28T09:26:57.032Z,126.04
2023-04-28T09:27:52.718Z,124.16
2023-04-28T09:28:48.166Z,122.52
2023-04-28T09:29:43.363Z,118.77
2023-04-28T09:30:38.810Z,118.86
2023-04-28T09:31:34.232Z,117.35
2023-04-28T09:32:29.920Z,117.19
2023-04-28T09:33:25.131Z,116.29
2023-04-28T09:34:20.672Z,115.81
2023-04-28T09:35:15.996Z,115.32
2023-04-28T09:36:11.472Z,115.72
2023-04-28T09:37:07.005Z,114.69
2023-04-28T09:38:02.642Z,113.37
2023-04-28T09:38:58.070Z,112.07
2023-04-28T09:39:53.226Z,111.18
2023-04-28T09:40:48.183Z,111.32
2023-04-28T09:41:43.202Z,113.37
2023-04-28T09:42:38.381Z,112.00
2023-04-28T09:43:33.268Z,107.32
2023-04-28T09:44:28.309Z,105.42
2023-04-28T09:45:23.345Z,103.26
2023-04-28T09:46:18.387Z,101.88
2023-04-28T09:47:13.407Z,102.00
2023-04-28T09:48:08.525Z,103.33
2023-04-28T09:49:05.893Z,102.57
2023-04-28T09:50:00.897Z,101.88
2023-04-28T09:50:56.032Z,103.14
2023-04-28T09:51:51.071Z,104.04
2023-04-28T09:52:47.053Z,104.89
2023-04-28T09:53:42.471Z,104.95
2023-04-28T09:54:37.753Z,106.56
2023-04-28T09:55:33.268Z,107.59
2023-04-28T09:56:28.869Z,109.57
2023-04-28T09:57:24.274Z,110.66
2023-04-28T09:58:19.603Z,111.70
2023-04-28T09:59:14.968Z,110.37
2023-04-28T10:00:10.599Z,111.70
2023-04-28T10:01:06.021Z,112.60
2023-04-28T10:02:12.792Z,113.06
2023-04-28T10:02:58.302Z,113.21
2023-04-28T10:03:52.505Z,114.22
2023-04-28T10:04:48.062Z,112.68
2023-04-28T10:05:43.076Z,111.77
2023-04-28T10:06:38.074Z,112.15
2023-04-28T10:07:33.227Z,112.00
2023-04-28T10:08:28.289Z,112.15
2023-04-28T10:09:24.866Z,111.47
2023-04-28T10:10:18.306Z,111.18
2023-04-28T10:11:13.338Z,112.15
2023-04-28T10:12:10.715Z,112.00
2023-04-28T10:13:05.874Z,110.66
2023-04-28T10:14:00.801Z,108.64
2023-04-28T10:14:55.906Z,106.09
2023-04-28T10:15:51.068Z,105.89
2023-04-28T10:16:46.233Z,105.42
2023-04-28T10:17:41.149Z,106.70
2023-04-28T10:18:36.157Z,108.15
2023-04-28T10:19:32.138Z,108.29
2023-04-28T10:20:27.576Z,109.21
2023-04-28T10:21:23.265Z,110.22
2023-04-28T10:22:18.715Z,110.37
2023-04-28T10:23:14.127Z,111.92
2023-04-28T10:24:09.519Z,110.22
2023-04-28T10:25:05.027Z,110.51
2023-04-28T10:26:00.701Z,111.55
2023-04-28T10:26:56.134Z,112.00
2023-04-28T10:27:51.459Z,111.85
2023-04-28T10:28:46.515Z,110.22
2023-04-28T10:29:41.546Z,110.08
2023-04-28T10:30:36.708Z,111.92
2023-04-28T10:31:31.807Z,113.29
2023-04-28T10:32:26.819Z,114.53
2023-04-28T10:33:21.992Z,113.75
2023-04-28T10:34:17.038Z,113.68
2023-04-28T10:35:14.077Z,111.77
2023-04-28T10:36:09.128Z,110.22
2023-04-28T10:37:04.156Z,110.15
2023-04-28T10:37:59.235Z,109.28
2023-04-28T10:38:54.328Z,110.37
2023-04-28T10:39:49.256Z,109.86
2023-04-28T10:40:44.363Z,108.93
2023-04-28T10:41:39.408Z,106.77
2023-04-28T10:42:34.500Z,106.77
2023-04-28T10:43:29.633Z,106.02
2023-04-28T10:44:24.519Z,105.75
2023-04-28T10:45:19.565Z,102.88
2023-04-28T10:46:15.099Z,99.99
2023-04-28T10:47:10.477Z,99.99
2023-04-28T10:48:06.103Z,101.07
2023-04-28T10:49:01.562Z,100.83
2023-04-28T10:49:57.056Z,99.99
2023-04-28T10:50:52.105Z,100.65
2023-04-28T10:51:47.154Z,100.77
2023-04-28T10:52:42.449Z,100.59
2023-04-28T10:53:37.342Z,99.27
2023-04-28T10:54:32.315Z,100.04
2023-04-28T10:55:27.361Z,100.71
2023-04-28T10:56:22.377Z,101.57
2023-04-28T10:57:17.496Z,100.04
2023-04-28T10:58:12.526Z,96.24
2023-04-28T10:59:07.555Z,94.89
2023-04-28T11:00:02.557Z,92.68
2023-04-28T11:00:57.738Z,93.30
2023-04-28T11:01:53.370Z,93.72
2023-04-28T11:02:48.839Z,94.14
2023-04-28T11:03:44.259Z,92.26
2023-04-28T11:04:40.067Z,89.98
2023-04-28T11:05:35.001Z,90.56
2023-04-28T11:06:30.026Z,91.36
2023-04-28T11:07:25.022Z,95.00
2023-04-28T11:08:20.285Z,94.92
2023-04-28T11:09:21.030Z,94.39
2023-04-28T11:10:16.559Z,95.41
2023-04-28T11:11:11.794Z,94.71
2023-04-28T11:12:07.775Z,95.41
2023-04-28T11:13:03.348Z,95.41
2023-04-28T11:13:58.604Z,94.57
2023-04-28T11:14:55.106Z,94.14
2023-04-28T11:15:50.711Z,94.78
2023-04-28T11:16:46.494Z,94.01
2023-04-28T11:17:41.957Z,95.36
2023-04-28T11:18:37.179Z,95.63
2023-04-28T11:19:33.450Z,94.82
2023-04-28T11:20:28.816Z,96.79
2023-04-28T11:21:24.467Z,97.13
2023-04-28T11:22:19.878Z,97.59
2023-04-28T11:23:15.329Z,97.70
2023-04-28T11:24:11.356Z,98.10
2023-04-28T11:25:06.858Z,97.70
2023-04-28T11:26:02.289Z,97.08
2023-04-28T11:26:58.650Z,96.07
2023-04-28T11:27:54.184Z,96.85
2023-04-28T11:28:49.881Z,96.07
2023-04-28T11:29:45.378Z,97.82
2023-04-28T11:30:40.888Z,97.47
2023-04-28T11:31:36.629Z,99.81
2023-04-28T11:32:32.136Z,100.83
2023-04-28T11:33:27.946Z,98.63
2023-04-28T11:34:23.202Z,97.70
2023-04-28T11:35:18.715Z,98.39
2023-04-28T11:36:14.599Z,98.05
2023-04-28T11:37:09.863Z,98.57
2023-04-28T11:38:05.252Z,99.15
2023-04-28T11:39:01.702Z,98.63
2023-04-28T11:39:56.942Z,98.92
2023-04-28T11:40:52.816Z,99.04
2023-04-28T11:41:48.286Z,97.59
2023-04-28T11:42:43.828Z,99.09
2023-04-28T11:43:47.030Z,98.51